createdAt,value
2017-06-15T15:39:48.289Z,2.20
2017-06-15T15:42:17.946Z,2.50
2017-06-15T15:44:47.621Z,2.70
2017-06-15T15:47:17.145Z,2.50
2017-06-15T15:49:46.722Z,2.70
2017-06-15T18:00:47.330Z,3.85
2017-06-15T18:03:16.828Z,2.83
2017-06-15T18:05:46.388Z,2.50
2017-06-15T18:08:15.876Z,2.67
2017-06-15T18:10:45.447Z,2.65
2017-06-15T18:13:15.022Z,2.33
2017-06-15T18:15:44.531Z,2.60
2017-06-15T18:18:14.115Z,2.90
2017-06-15T18:20:43.680Z,2.43
2017-06-15T18:23:13.229Z,2.77
2017-06-15T18:25:42.693Z,2.40
2017-06-15T18:28:12.272Z,2.13
2017-06-15T18:30:41.931Z,2.30
2017-06-15T18:33:11.439Z,2.50
2017-06-15T18:35:40.937Z,2.00
2017-06-15T18:38:10.492Z,2.30
2017-06-15T18:40:40.029Z,2.00
2017-06-15T18:43:09.616Z,1.93
2017-06-15T18:45:39.157Z,2.17
2017-06-15T18:48:08.664Z,2.50
2017-06-15T18:50:38.192Z,1.90
2017-06-15T18:53:07.681Z,1.97
2017-06-15T18:55:37.219Z,1.63
2017-06-15T18:58:06.712Z,2.27
2017-06-15T19:00:36.230Z,1.90
2017-06-15T19:03:05.760Z,2.00
2017-06-15T19:05:35.515Z,3.13
2017-06-15T19:08:04.997Z,2.30
2017-06-15T19:10:34.492Z,2.23
2017-06-15T19:13:04.013Z,2.00
2017-06-15T19:15:33.559Z,3.17
2017-06-15T19:18:03.452Z,2.27
2017-06-15T19:20:32.985Z,2.10
2017-06-15T19:23:02.593Z,1.73
2017-06-15T19:25:32.094Z,2.10
2017-06-15T19:28:01.628Z,2.00
2017-06-15T19:30:31.238Z,2.03
2017-06-15T19:33:00.763Z,1.67
2017-06-15T19:35:30.403Z,1.83
2017-06-15T19:37:59.962Z,1.70
2017-06-15T19:40:29.457Z,1.50
2017-06-15T19:42:58.986Z,1.70
2017-06-15T19:45:28.502Z,1.70
2017-06-15T19:47:58.069Z,1.67
2017-06-15T19:50:27.544Z,1.60
2017-06-15T19:52:57.069Z,1.40
2017-06-15T19:55:26.563Z,2.60
2017-06-15T19:57:56.094Z,3.87
2017-06-15T20:00:25.599Z,3.63
2017-06-15T20:02:55.830Z,2.90
2017-06-15T20:05:25.358Z,2.00
2017-06-15T20:07:54.843Z,2.13
2017-06-15T20:10:24.364Z,1.80
2017-06-15T20:12:53.870Z,1.30
2017-06-15T20:15:23.417Z,1.40
2017-06-15T20:17:52.979Z,1.90
2017-06-15T20:20:22.496Z,1.70
2017-06-15T20:22:52.004Z,1.40
2017-06-15T20:25:36.423Z,1.40
2017-06-15T20:28:05.917Z,1.73
2017-06-15T20:30:35.418Z,1.37
2017-06-15T20:33:04.941Z,1.10
2017-06-15T20:35:34.464Z,1.40
2017-06-15T20:38:04.067Z,1.40
